createdAt,value
2022-12-25T00:02:05.288Z,101211.50
2022-12-25T00:04:33.370Z,101208.03
2022-12-25T00:07:01.467Z,101203.59
2022-12-25T00:09:30.015Z,101215.25
2022-12-25T00:11:58.092Z,101212.66
2022-12-25T00:14:26.183Z,101224.28
2022-12-25T00:16:54.265Z,101218.06
2022-12-25T00:19:23.750Z,101226.09
2022-12-25T00:21:51.811Z,101227.91
2022-12-25T00:24:19.883Z,101216.31
2022-12-25T00:26:47.977Z,101228.81
2022-12-25T00:29:16.061Z,101220.81
2022-12-25T00:31:44.355Z,101210.09
2022-12-25T00:34:12.485Z,101215.44
2022-12-25T00:36:42.381Z,101211.78
2022-12-25T00:39:10.635Z,101205.56
2022-12-25T00:41:56.415Z,101210.84
2022-12-25T00:44:24.507Z,101212.59
2022-12-25T00:46:52.651Z,101205.44
2022-12-25T00:49:22.204Z,101210.75
2022-12-25T00:51:51.648Z,101214.31
2022-12-25T00:54:20.494Z,101220.47
2022-12-25T00:56:48.699Z,101220.47
2022-12-25T00:59:16.829Z,101215.06
2022-12-25T01:01:45.221Z,101216.75
2022-12-25T01:04:14.136Z,101218.47
2022-12-25T01:06:42.262Z,101219.28
2022-12-25T01:09:25.593Z,101220.09
2022-12-25T01:11:53.916Z,101224.44
2022-12-25T01:14:22.027Z,101221.69
2022-12-25T01:16:50.204Z,101223.38
2022-12-25T01:19:18.266Z,101226.84
2022-12-25T01:21:46.315Z,101223.25
2022-12-25T01:24:15.845Z,101218.69
2022-12-25T01:26:43.893Z,101217.81
2022-12-25T01:29:11.958Z,101223.19
2022-12-25T01:31:40.015Z,101226.91
2022-12-25T01:34:08.104Z,101234.25
2022-12-25T01:36:36.164Z,101238.91
2022-12-25T01:39:05.213Z,101241.69
2022-12-25T01:41:34.697Z,101247.97
2022-12-25T01:44:05.960Z,101243.50
2022-12-25T01:46:34.721Z,101251.53
2022-12-25T01:49:06.503Z,101255.00
2022-12-25T01:51:37.143Z,101241.56
2022-12-25T01:54:07.926Z,101244.19
2022-12-25T01:56:38.923Z,101238.75
2022-12-25T01:59:08.069Z,101244.97
2022-12-25T02:01:36.329Z,101241.31
2022-12-25T02:04:08.105Z,101246.59
2022-12-25T02:06:36.327Z,101247.47
2022-12-25T02:09:04.443Z,101246.53
2022-12-25T02:11:49.871Z,101242.91
2022-12-25T02:14:19.430Z,101245.66
2022-12-25T02:16:57.625Z,101250.13
2022-12-25T02:19:43.976Z,101251.06
2022-12-25T02:22:19.535Z,101253.88
2022-12-25T02:24:59.484Z,101270.00
2022-12-25T02:27:48.799Z,101268.25
2022-12-25T02:30:16.925Z,101270.97
2022-12-25T02:32:48.152Z,101276.28
2022-12-25T02:35:18.135Z,101265.56
2022-12-25T02:37:52.298Z,101274.41
2022-12-25T02:40:22.431Z,101278.84
2022-12-25T02:43:13.201Z,101277.84
2022-12-25T02:46:02.817Z,101280.53
2022-12-25T02:48:50.782Z,101280.53
2022-12-25T02:51:38.079Z,101275.22
2022-12-25T02:54:36.137Z,101291.34
2022-12-25T02:57:25.381Z,101290.47
2022-12-25T03:00:15.128Z,101291.28
2022-12-25T03:03:06.657Z,101289.53
2022-12-25T03:05:54.920Z,101296.59
2022-12-25T03:08:25.786Z,101296.53
2022-12-25T03:11:17.052Z,101295.59
2022-12-25T03:13:48.156Z,101300.00
2022-12-25T03:16:35.107Z,101291.97
2022-12-25T03:19:24.044Z,101278.59
2022-12-25T03:22:10.257Z,101290.19
2022-12-25T03:24:55.881Z,101284.81
2022-12-25T03:27:24.205Z,101281.28
2022-12-25T03:30:09.851Z,101281.28
2022-12-25T03:32:43.186Z,101274.13
2022-12-25T03:35:24.067Z,101261.66
2022-12-25T03:38:14.879Z,101271.56
2022-12-25T03:41:10.969Z,101273.38
2022-12-25T03:44:00.262Z,101268.13
2022-12-25T03:46:50.017Z,101264.66
2022-12-25T03:49:42.479Z,101262.13
2022-12-25T03:52:30.505Z,101266.66
2022-12-25T03:55:18.641Z,101276.53
2022-12-25T03:58:04.883Z,101274.00
2022-12-25T04:00:52.838Z,101273.19
2022-12-25T04:03:38.416Z,101260.69
2022-12-25T04:06:22.125Z,101255.47
2022-12-25T04:09:07.563Z,101266.28
2022-12-25T04:11:58.767Z,101260.16
2022-12-25T04:14:47.486Z,101245.97
2022-12-25T04:17:33.129Z,101247.84
2022-12-25T04:20:18.581Z,101243.44
2022-12-25T04:23:05.561Z,101236.28
2022-12-25T04:25:50.964Z,101239.06
2022-12-25T04:28:36.666Z,101218.53
2022-12-25T04:31:22.603Z,101214.94
2022-12-25T04:34:07.964Z,101220.16
2022-12-25T04:36:36.053Z,101221.91
2022-12-25T04:39:05.555Z,101230.78
2022-12-25T04:41:33.627Z,101232.53
2022-12-25T04:44:01.778Z,101233.34
2022-12-25T04:46:29.920Z,101222.53
2022-12-25T04:48:58.094Z,101212.66
2022-12-25T04:51:27.019Z,101223.28
2022-12-25T04:53:55.190Z,101219.66
2022-12-25T04:56:24.745Z,101216.91
2022-12-25T04:58:52.838Z,101216.84
2022-12-25T05:01:20.967Z,101209.75
2022-12-25T05:03:49.208Z,101205.28
2022-12-25T05:06:17.385Z,101195.44
2022-12-25T05:08:45.468Z,101198.06
2022-12-25T05:11:15.368Z,101195.38
2022-12-25T05:13:45.241Z,101200.69
2022-12-25T05:16:15.931Z,101194.44
2022-12-25T05:18:44.265Z,101191.78
2022-12-25T05:21:12.817Z,101190.84
2022-12-25T05:23:48.402Z,101190.78
2022-12-25T05:26:17.951Z,101187.16
2022-12-25T05:28:47.580Z,101186.38
2022-12-25T05:31:16.093Z,101192.66
2022-12-25T05:33:44.296Z,101186.47
2022-12-25T05:36:13.804Z,101182.06
2022-12-25T05:38:41.880Z,101183.06
2022-12-25T05:41:09.992Z,101187.53
2022-12-25T05:43:38.104Z,101179.59
2022-12-25T05:46:08.877Z,101177.06
2022-12-25T05:48:38.319Z,101180.66
2022-12-25T05:51:07.386Z,101183.50
2022-12-25T05:53:35.890Z,101176.41
2022-12-25T05:56:04.922Z,101170.25
2022-12-25T05:58:34.338Z,101165.03
2022-12-25T06:01:02.540Z,101165.09
2022-12-25T06:03:32.003Z,101165.16
2022-12-25T06:06:00.149Z,101164.34
2022-12-25T06:08:28.181Z,101164.44
2022-12-25T06:10:56.292Z,101165.38
2022-12-25T06:13:24.365Z,101168.97
2022-12-25T06:15:52.449Z,101179.66
2022-12-25T06:18:20.538Z,101187.63
2022-12-25T06:20:50.078Z,101181.34
2022-12-25T06:23:18.162Z,101172.44
2022-12-25T06:25:46.298Z,101163.50
2022-12-25T06:28:14.329Z,101159.94
2022-12-25T06:30:42.408Z,101166.16
2022-12-25T06:33:10.463Z,101167.06
2022-12-25T06:35:40.148Z,101167.03
2022-12-25T06:38:09.602Z,101184.00
2022-12-25T06:40:37.684Z,101180.44
2022-12-25T06:43:05.868Z,101175.97
2022-12-25T06:45:36.632Z,101174.19
2022-12-25T06:48:04.983Z,101167.09
2022-12-25T06:50:33.084Z,101172.44
2022-12-25T06:53:01.141Z,101176.06
2022-12-25T06:55:30.592Z,101181.41
2022-12-25T06:57:58.852Z,101178.78
2022-12-25T07:00:26.925Z,101177.94
2022-12-25T07:02:55.110Z,101182.34
2022-12-25T07:05:23.205Z,101177.00
2022-12-25T07:07:51.328Z,101176.06
2022-12-25T07:10:19.374Z,101194.78
2022-12-25T07:12:48.830Z,101202.88
2022-12-25T07:15:16.940Z,101196.66
2022-12-25T07:17:44.970Z,101200.25
2022-12-25T07:20:13.141Z,101191.34
2022-12-25T07:22:41.215Z,101197.56
2022-12-25T07:25:09.645Z,101202.13
2022-12-25T07:27:37.701Z,101198.63
2022-12-25T07:30:08.834Z,101204.03
2022-12-25T07:32:36.939Z,101204.97
2022-12-25T07:35:05.527Z,101201.38
2022-12-25T07:37:33.593Z,101201.31
2022-12-25T07:40:01.744Z,101201.31
2022-12-25T07:42:29.785Z,101195.09
2022-12-25T07:44:58.231Z,101203.09
2022-12-25T07:47:27.683Z,101203.91
2022-12-25T07:49:55.776Z,101210.13
2022-12-25T07:52:23.870Z,101206.53
2022-12-25T07:54:54.596Z,101191.41
2022-12-25T07:57:22.671Z,101197.69
2022-12-25T07:59:50.776Z,101194.22
2022-12-25T08:02:19.138Z,101188.88
2022-12-25T08:04:48.729Z,101199.63
2022-12-25T08:07:16.761Z,101197.75
2022-12-25T08:09:44.835Z,101188.88
2022-12-25T08:12:12.913Z,101184.31
2022-12-25T08:14:40.983Z,101178.97
2022-12-25T08:17:09.365Z,101177.19
2022-12-25T08:19:37.547Z,101182.47
2022-12-25T08:22:07.282Z,101179.72
2022-12-25T08:24:35.337Z,101169.91
2022-12-25T08:27:03.942Z,101163.63
2022-12-25T08:29:35.005Z,101165.38
2022-12-25T08:32:03.437Z,101165.31
2022-12-25T08:34:31.497Z,101159.94
2022-12-25T08:36:59.566Z,101162.53
2022-12-25T08:39:29.071Z,101161.53
2022-12-25T08:41:57.173Z,101157.94
2022-12-25T08:44:25.645Z,101157.81
2022-12-25T08:46:54.091Z,101160.34
2022-12-25T08:49:23.019Z,101153.94
2022-12-25T08:51:51.300Z,101159.13
2022-12-25T08:54:19.360Z,101154.56
2022-12-25T08:56:48.951Z,101161.59
2022-12-25T08:59:17.067Z,101163.28
2022-12-25T09:01:45.298Z,101166.69
2022-12-25T09:04:13.428Z,101171.03
2022-12-25T09:06:41.503Z,101168.28
2022-12-25T09:09:09.578Z,101170.75
2022-12-25T09:11:37.612Z,101171.56
2022-12-25T09:14:07.196Z,101183.97
2022-12-25T09:16:35.363Z,101191.91
2022-12-25T09:19:03.532Z,101189.09
2022-12-25T09:21:31.740Z,101202.28
2022-12-25T09:23:59.851Z,101189.78
2022-12-25T09:26:28.060Z,101191.44
2022-12-25T09:28:56.122Z,101185.19
2022-12-25T09:31:25.724Z,101191.28
2022-12-25T09:33:57.878Z,101184.94
2022-12-25T09:36:26.572Z,101189.38
2022-12-25T09:38:54.718Z,101192.84
2022-12-25T09:41:28.903Z,101196.31
2022-12-25T09:44:02.460Z,101197.19
2022-12-25T09:46:38.424Z,101190.03
2022-12-25T09:49:13.057Z,101187.31
2022-12-25T09:51:41.783Z,101183.72
2022-12-25T09:54:15.452Z,101182.78
2022-12-25T09:56:43.553Z,101184.38
2022-12-25T09:59:18.577Z,101176.28
2022-12-25T10:01:58.071Z,101176.16
2022-12-25T10:04:40.934Z,101178.66
2022-12-25T10:07:17.816Z,101176.72
2022-12-25T10:09:54.648Z,101169.44
2022-12-25T10:12:39.741Z,101179.19
2022-12-25T10:15:20.004Z,101179.91
2022-12-25T10:18:05.811Z,101182.53
2022-12-25T10:20:43.827Z,101179.84
2022-12-25T10:23:16.591Z,101180.66
2022-12-25T10:25:46.085Z,101166.31
2022-12-25T10:28:15.953Z,101161.81
2022-12-25T10:30:45.780Z,101155.47
2022-12-25T10:33:17.437Z,101137.53
2022-12-25T10:35:46.094Z,101131.22
2022-12-25T10:38:16.282Z,101123.94
2022-12-25T10:40:57.574Z,101125.59
2022-12-25T10:43:29.760Z,101114.81
2022-12-25T10:45:57.876Z,101122.75
2022-12-25T10:48:29.909Z,101123.63
2022-12-25T10:50:58.152Z,101114.63
2022-12-25T10:53:27.942Z,101112.81
2022-12-25T10:55:58.345Z,101123.53
2022-12-25T10:58:26.889Z,101113.69
2022-12-25T11:00:56.556Z,101111.94
2022-12-25T11:03:26.409Z,101109.28
2022-12-25T11:05:56.206Z,101111.94
2022-12-25T11:08:26.194Z,101110.06
2022-12-25T11:10:57.522Z,101107.47
2022-12-25T11:13:27.664Z,101102.97
2022-12-25T11:16:10.666Z,101097.47
2022-12-25T11:18:46.534Z,101091.97
2022-12-25T11:21:20.623Z,101088.41
2022-12-25T11:23:50.017Z,101076.69
2022-12-25T11:26:19.186Z,101072.19
2022-12-25T11:28:48.004Z,101074.88
2022-12-25T11:31:19.316Z,101075.72
2022-12-25T11:33:51.564Z,101065.88
2022-12-25T11:36:27.723Z,101067.50
2022-12-25T11:38:55.918Z,101065.69
2022-12-25T11:41:28.680Z,101054.97
2022-12-25T11:44:00.000Z,101048.66
2022-12-25T11:46:31.140Z,101053.88
2022-12-25T11:49:02.458Z,101037.66
2022-12-25T11:51:34.603Z,101043.78
2022-12-25T11:54:08.431Z,101049.84
2022-12-25T11:56:38.504Z,101045.22
2022-12-25T11:59:16.379Z,101051.34
2022-12-25T12:01:48.315Z,101054.75
2022-12-25T12:04:24.312Z,101052.84
2022-12-25T12:07:01.224Z,101057.13
2022-12-25T12:09:38.483Z,101059.72
2022-12-25T12:12:12.183Z,101051.66
2022-12-25T12:14:48.789Z,101056.94
2022-12-25T12:17:18.813Z,101057.72
2022-12-25T12:19:46.977Z,101060.41
2022-12-25T12:22:21.276Z,101062.16
2022-12-25T12:24:54.296Z,101054.97
2022-12-25T12:27:26.354Z,101064.84
2022-12-25T12:29:56.903Z,101065.63
2022-12-25T12:32:36.874Z,101053.94
2022-12-25T12:35:18.314Z,101059.31
2022-12-25T12:37:50.768Z,101066.41
2022-12-25T12:40:25.762Z,101057.59
2022-12-25T12:42:54.012Z,101050.47
2022-12-25T12:45:26.454Z,101053.22
2022-12-25T12:47:54.676Z,101056.78
2022-12-25T12:50:33.087Z,101061.28
2022-12-25T12:53:24.938Z,101064.03
2022-12-25T12:55:53.701Z,101055.03
2022-12-25T12:58:33.113Z,101042.56
2022-12-25T13:01:09.861Z,101043.44
2022-12-25T13:03:47.287Z,101028.28
2022-12-25T13:06:18.563Z,101022.06
2022-12-25T13:08:57.385Z,101022.06
2022-12-25T13:11:27.108Z,101012.19
2022-12-25T13:13:58.072Z,101021.13
2022-12-25T13:16:29.275Z,101015.69
2022-12-25T13:18:57.902Z,101012.03
2022-12-25T13:21:27.214Z,101011.91
2022-12-25T13:24:01.228Z,101006.44
2022-12-25T13:26:29.982Z,101007.25
2022-12-25T13:28:58.250Z,101004.44
2022-12-25T13:31:27.779Z,100999.94
2022-12-25T13:33:59.247Z,100994.50
2022-12-25T13:36:28.372Z,100995.38
2022-12-25T13:38:58.461Z,100999.72
2022-12-25T13:41:54.811Z,100990.72
2022-12-25T13:44:24.893Z,100995.88
2022-12-25T13:46:53.133Z,100992.25
2022-12-25T13:49:23.487Z,100999.34
2022-12-25T13:51:52.218Z,100998.34
2022-12-25T13:54:20.911Z,100999.19
2022-12-25T13:56:52.863Z,100984.84
2022-12-25T13:59:22.952Z,100983.03
2022-12-25T14:01:52.400Z,100983.97
2022-12-25T14:04:22.910Z,100982.22
2022-12-25T14:06:52.094Z,100981.44
2022-12-25T14:09:20.617Z,100980.56
2022-12-25T14:11:53.342Z,100978.84
2022-12-25T14:14:24.416Z,100979.78
2022-12-25T14:16:56.010Z,100987.84
2022-12-25T14:19:30.068Z,100986.06
2022-12-25T14:22:02.324Z,100985.19
2022-12-25T14:24:33.342Z,100984.41
2022-12-25T14:27:05.013Z,100984.56
2022-12-25T14:29:38.107Z,100976.59
2022-12-25T14:32:08.645Z,100973.03
2022-12-25T14:34:36.903Z,100980.28
2022-12-25T14:37:05.371Z,100981.25
2022-12-25T14:39:36.143Z,100976.81
2022-12-25T14:42:14.708Z,100969.84
2022-12-25T14:44:42.922Z,100963.75
2022-12-25T14:47:18.532Z,100957.69
2022-12-25T14:49:47.180Z,100946.19
2022-12-25T14:52:20.275Z,100941.84
2022-12-25T14:54:50.923Z,100933.88
2022-12-25T14:57:26.066Z,100926.00
2022-12-25T14:59:59.358Z,100930.66
2022-12-25T15:02:27.861Z,100928.09
2022-12-25T15:04:56.120Z,100921.13
2022-12-25T15:07:29.011Z,100931.94
2022-12-25T15:10:28.688Z,100929.41
2022-12-25T15:12:46.947Z,100920.63
2022-12-25T15:15:15.215Z,100921.63
2022-12-25T15:17:43.506Z,100910.13
2022-12-25T15:20:13.597Z,100903.09
2022-12-25T15:23:10.334Z,100904.03
2022-12-25T15:25:31.660Z,100908.66
2022-12-25T15:28:01.697Z,100909.66
2022-12-25T15:30:30.434Z,100907.06
2022-12-25T15:32:58.619Z,100908.00
2022-12-25T15:35:26.888Z,100897.38
2022-12-25T15:37:55.130Z,100895.63
2022-12-25T15:40:23.384Z,100893.03
2022-12-25T15:42:51.797Z,100893.09
2022-12-25T15:45:22.759Z,100900.19
2022-12-25T15:47:51.088Z,100892.16
2022-12-25T15:50:20.524Z,100900.19
2022-12-25T15:52:49.041Z,100908.31
2022-12-25T15:55:17.768Z,100898.50
2022-12-25T15:57:48.476Z,100892.28
2022-12-25T16:00:19.771Z,100892.28
2022-12-25T16:02:49.440Z,100885.19
2022-12-25T16:05:18.023Z,100875.41
2022-12-25T16:07:46.271Z,100881.69
2022-12-25T16:10:17.100Z,100884.47
2022-12-25T16:12:45.438Z,100877.44
2022-12-25T16:15:15.087Z,100883.75
2022-12-25T16:17:43.436Z,100882.94
2022-12-25T16:20:13.733Z,100880.25
2022-12-25T16:22:42.015Z,100880.31
2022-12-25T16:25:14.700Z,100883.06
2022-12-25T16:27:43.255Z,100884.94
2022-12-25T16:30:13.252Z,100882.28
2022-12-25T16:32:42.599Z,100871.63
2022-12-25T16:35:13.163Z,100864.44
2022-12-25T16:37:41.449Z,100857.28
2022-12-25T16:40:10.666Z,100851.13
2022-12-25T16:42:39.109Z,100857.50
2022-12-25T16:45:08.296Z,100853.97
2022-12-25T16:47:36.517Z,100850.41
2022-12-25T16:50:06.393Z,100847.72
2022-12-25T16:52:36.713Z,100852.16
2022-12-25T16:55:05.710Z,100849.47
2022-12-25T16:57:33.983Z,100859.31
2022-12-25T17:00:02.171Z,100855.78
2022-12-25T17:02:30.507Z,100851.28
2022-12-25T17:05:00.470Z,100836.06
2022-12-25T17:07:28.703Z,100836.94
2022-12-25T17:09:58.334Z,100831.59
2022-12-25T17:12:26.670Z,100820.00
2022-12-25T17:14:54.883Z,100812.75
2022-12-25T17:17:23.131Z,100825.22
2022-12-25T17:19:51.278Z,100817.16
2022-12-25T17:22:19.636Z,100816.22
2022-12-25T17:24:47.835Z,100812.69
2022-12-25T17:27:17.458Z,100810.06
2022-12-25T17:29:47.299Z,100815.44
2022-12-25T17:32:15.623Z,100811.88
2022-12-25T17:34:43.870Z,100816.38
2022-12-25T17:37:12.058Z,100802.09
2022-12-25T17:39:40.364Z,100802.97
2022-12-25T17:42:08.602Z,100794.94
2022-12-25T17:44:38.155Z,100799.44
2022-12-25T17:47:06.455Z,100798.50
2022-12-25T17:49:35.922Z,100784.22
2022-12-25T17:52:04.097Z,100780.59
2022-12-25T17:54:32.368Z,100781.41
2022-12-25T17:57:00.542Z,100771.53
2022-12-25T17:59:29.703Z,100767.03
2022-12-25T18:01:59.372Z,100769.72
2022-12-25T18:04:27.693Z,100769.66
2022-12-25T18:06:55.839Z,100770.59
2022-12-25T18:09:23.971Z,100766.19
2022-12-25T18:11:52.280Z,100770.66
2022-12-25T18:14:20.475Z,100760.03
2022-12-25T18:16:48.799Z,100760.91
2022-12-25T18:19:19.717Z,100755.53
2022-12-25T18:21:47.939Z,100755.63
2022-12-25T18:24:16.121Z,100747.59
2022-12-25T18:26:45.622Z,100747.59
2022-12-25T18:29:13.790Z,100740.41
2022-12-25T18:31:42.032Z,100742.31
2022-12-25T18:34:10.251Z,100744.97
2022-12-25T18:36:39.935Z,100736.00
2022-12-25T18:39:08.223Z,100745.84
2022-12-25T18:41:57.154Z,100738.75
2022-12-25T18:44:25.348Z,100732.53
2022-12-25T18:46:53.901Z,100729.84
2022-12-25T18:49:22.089Z,100729.94
2022-12-25T18:51:51.639Z,100726.44
2022-12-25T18:54:20.042Z,100735.41
2022-12-25T18:56:53.379Z,100723.91
2022-12-25T18:59:21.854Z,100719.50
2022-12-25T19:01:50.215Z,100716.88
2022-12-25T19:04:18.525Z,100714.28
2022-12-25T19:06:47.996Z,100703.72
2022-12-25T19:09:17.618Z,100707.34
2022-12-25T19:11:46.941Z,100706.47
2022-12-25T19:14:15.916Z,100697.63
2022-12-25T19:16:44.382Z,100698.44
2022-12-25T19:19:13.146Z,100701.13
2022-12-25T19:21:41.474Z,100699.31
2022-12-25T19:24:09.783Z,100687.72
2022-12-25T19:26:39.433Z,100685.06
2022-12-25T19:29:07.637Z,100687.66
2022-12-25T19:31:37.194Z,100688.53
2022-12-25T19:34:06.662Z,100684.03
2022-12-25T19:36:35.338Z,100679.53
2022-12-25T19:39:03.674Z,100676.06
2022-12-25T19:41:33.803Z,100674.34
2022-12-25T19:44:03.542Z,100678.00
2022-12-25T19:46:33.839Z,100669.09
2022-12-25T19:49:04.516Z,100658.47
2022-12-25T19:51:35.263Z,100663.75
2022-12-25T19:54:04.008Z,100655.63
2022-12-25T19:56:34.293Z,100646.66
2022-12-25T19:59:04.476Z,100650.06
2022-12-25T20:01:33.611Z,100641.19
2022-12-25T20:04:02.363Z,100644.63
2022-12-25T20:06:32.223Z,100637.38
2022-12-25T20:09:02.176Z,100633.84
2022-12-25T20:11:32.173Z,100635.56
2022-12-25T20:14:00.657Z,100629.34
2022-12-25T20:16:30.384Z,100630.31
2022-12-25T20:18:59.190Z,100622.44
2022-12-25T20:21:27.773Z,100625.19
2022-12-25T20:23:56.057Z,100624.31
2022-12-25T20:26:26.141Z,100627.91
2022-12-25T20:28:54.797Z,100622.63
2022-12-25T20:31:27.454Z,100623.56
2022-12-25T20:33:58.204Z,100617.34
2022-12-25T20:36:31.043Z,100613.72
2022-12-25T20:39:02.860Z,100612.78
2022-12-25T20:41:31.100Z,100608.25
2022-12-25T20:43:59.988Z,100614.38
2022-12-25T20:46:28.424Z,100607.22
2022-12-25T20:48:58.170Z,100607.13
2022-12-25T20:51:27.210Z,100608.88
2022-12-25T20:53:56.159Z,100606.13
2022-12-25T20:56:25.913Z,100601.69
2022-12-25T20:58:55.317Z,100612.56
2022-12-25T21:01:23.872Z,100614.38
2022-12-25T21:03:52.730Z,100610.91
2022-12-25T21:06:22.955Z,100615.41
2022-12-25T21:08:51.246Z,100609.16
2022-12-25T21:11:21.336Z,100610.09
2022-12-25T21:13:49.710Z,100602.94
2022-12-25T21:16:19.977Z,100610.06
2022-12-25T21:18:48.723Z,100602.03
2022-12-25T21:21:17.070Z,100602.06
2022-12-25T21:23:47.080Z,100605.69
2022-12-25T21:26:18.536Z,100607.44
2022-12-25T21:28:47.303Z,100598.53
2022-12-25T21:31:15.687Z,100596.78
2022-12-25T21:33:52.317Z,100598.59
2022-12-25T21:36:23.645Z,100597.75
2022-12-25T21:38:58.399Z,100601.34
2022-12-25T21:41:27.456Z,100601.34
2022-12-25T21:43:56.453Z,100595.06
2022-12-25T21:46:25.038Z,100599.47
2022-12-25T21:48:53.540Z,100594.13
2022-12-25T21:51:42.967Z,100594.03
2022-12-25T21:54:13.362Z,100595.84
2022-12-25T21:56:44.847Z,100592.16
2022-12-25T21:59:16.767Z,100594.00
2022-12-25T22:01:45.273Z,100585.94
2022-12-25T22:04:14.412Z,100575.16
2022-12-25T22:06:59.882Z,100577.84
2022-12-25T22:09:29.425Z,100567.19
2022-12-25T22:12:14.726Z,100559.16
2022-12-25T22:14:56.697Z,100561.84
2022-12-25T22:17:44.659Z,100568.19
2022-12-25T22:20:14.862Z,100570.09
2022-12-25T22:22:42.969Z,100562.22
2022-12-25T22:25:12.629Z,100564.97
2022-12-25T22:27:41.726Z,100562.38
2022-12-25T22:30:12.128Z,100559.69
2022-12-25T22:32:40.261Z,100555.22
2022-12-25T22:35:09.359Z,100556.06
2022-12-25T22:37:37.530Z,100556.94
2022-12-25T22:40:07.257Z,100556.00
2022-12-25T22:42:36.772Z,100560.41
2022-12-25T22:45:05.747Z,100557.72
2022-12-25T22:47:33.909Z,100549.69
2022-12-25T22:50:02.056Z,100549.69
2022-12-25T22:52:30.147Z,100549.69
2022-12-25T22:54:58.254Z,100536.38
2022-12-25T22:57:26.579Z,100524.88
2022-12-25T22:59:56.081Z,100534.66
2022-12-25T23:02:24.414Z,100517.84
2022-12-25T23:04:52.597Z,100516.97
2022-12-25T23:07:20.807Z,100517.94
2022-12-25T23:09:49.047Z,100514.38
2022-12-25T23:12:31.005Z,100514.47
2022-12-25T23:15:00.484Z,100509.19
2022-12-25T23:17:45.823Z,100509.34
2022-12-25T23:20:33.126Z,100520.16
2022-12-25T23:23:19.312Z,100524.72
2022-12-25T23:26:04.980Z,100522.25
2022-12-25T23:28:50.822Z,100526.97
2022-12-25T23:31:21.867Z,100527.19
2022-12-25T23:33:49.978Z,100524.66
2022-12-25T23:36:18.060Z,100521.97
2022-12-25T23:38:46.170Z,100523.72
2022-12-25T23:41:14.225Z,100534.56
2022-12-25T23:43:42.296Z,100529.47
2022-12-25T23:46:10.484Z,100520.69
2022-12-25T23:48:40.010Z,100535.75
2022-12-25T23:51:09.045Z,100530.25
2022-12-25T23:53:37.270Z,100527.41
2022-12-25T23:56:05.971Z,100531.81
2022-12-25T23:58:34.869Z,100529.00
